Terminal Aerodrome Forecast
Issued by NWS

Home | Current Version | Previous Version | Text Only | Print | Product List | Glossary On
Versions: 1 2 3 4 5 6 7 8 9 10 11 12 13 14 15 16 17 18 19 20 21 22 23 24 25 26 27 28 29 30 31 32 33 34
734
FTUS45 KPIH 201727
TAFSUN
TAF
KSUN 201727Z 2018/2118 VRB06KT 1SM -SN BKN006 OVC012
     FM201900 15006KT 6SM -RASN BR SCT010 BKN015 OVC020
     FM210200 VRB05KT 5SM -SHRASN BR SCT008 BKN013 OVC020
      TEMPO 2107/2111 2SM -SHSN BR BKN008 OVC013=

USA.gov is the U.S. government's official web portal to all federal, state and local government web resources and services.